Data for 06/22/2006

Time Sea-Level Adjusted Pressure Absolute Pressure Temperature Relative Humidity Dew Point   
(mb) (inHg) (mb) (inHg) (C) (F) (%) (C) (F)
00:05 1024 30.24 853 25.19 12.1 53.8 65 5.7 42.2
00:10 1024 30.24 853 25.19 12.1 53.7 63 5.2 41.4
00:15 1024 30.24 853 25.19 11.7 53 64 5.1 41.3
00:20 1024 30.24 853 25.19 11.5 52.6 65 5.1 41.2
00:25 1024 30.24 853 25.19 11.3 52.3 65 5.1 41.2
00:30 1024 30.24 853 25.19 11.2 52.2 65 4.9 40.8
00:35 1024 30.24 853 25.19 11.2 52.1 64 4.7 40.5
00:40 1024 30.24 853 25.19 11.2 52.2 63 4.5 40.1
00:45 1024 30.24 853 25.19 11.2 52.2 62 4.3 39.7
00:50 1024 30.24 853 25.19 11.3 52.3 64 4.7 40.5
00:55 1024 30.24 853 25.19 11.3 52.3 61 4.2 39.5
01:00 1024 30.24 853 25.19 11.2 52.1 61 4 39.2
01:05 1024 30.24 853 25.19 11.1 52 61 4 39.2
01:10 1024 30.24 853 25.19 11.1 52 61 3.8 38.9
01:15 1024 30.24 853 25.19 11.1 52 61 4 39.1
01:20 1024 30.24 853 25.19 10.9 51.6 61 3.7 38.6
01:25 1024 30.24 853 25.19 11 51.7 61 3.8 38.8
01:30 1024 30.24 853 25.19 10.9 51.7 61 3.7 38.7
01:35 1024 30.24 853 25.19 10.8 51.4 62 3.9 39
01:40 1024 30.24 853 25.19 10.8 51.4 62 3.9 39.1
01:45 1024 30.24 853 25.19 10.8 51.5 63 4.2 39.6
01:50 1024 30.24 853 25.19 10.9 51.5 62 4 39.2
01:55 1024 30.24 854 25.22 10.9 51.5 64 4.3 39.7
02:00 1024 30.24 854 25.22 10.8 51.4 63 4.1 39.3
02:05 1024 30.24 853 25.19 11 51.8 63 4.3 39.7
02:10 1024 30.24 853 25.19 11 51.7 63 4.1 39.5
02:15 1024 30.24 853 25.19 10.7 51.3 63 4.1 39.3
02:20 1024 30.24 853 25.19 10.7 51.2 64 4.2 39.6
02:25 1024 30.24 853 25.19 10.6 51.1 64 4.1 39.4
02:30 1024 30.24 854 25.22 10.4 50.7 65 4.1 39.3
02:35 1024 30.24 853 25.19 10.1 50.2 64 3.6 38.5
02:40 1024 30.24 853 25.19 10 50 63 3.3 37.9
02:45 1024 30.24 853 25.19 9.7 49.4 66 3.7 38.7
02:50 1024 30.24 853 25.19 9.6 49.3 64 3.2 37.7
02:55 1024 30.24 853 25.19 9.8 49.6 64 3.4 38.1
03:00 1024 30.24 853 25.19 10.2 50.3 62 3.3 37.9
03:05 1024 30.24 853 25.19 10.4 50.8 62 3.4 38.2
03:10 1024 30.24 853 25.19 10.6 51.1 62 3.6 38.5
03:15 1024 30.24 853 25.19 10.1 50.2 63 3.4 38.2
03:20 1024 30.24 853 25.19 10 50 64 3.5 38.3
03:25 1024 30.24 853 25.19 10.1 50.3 63 3.6 38.4
03:30 1024 30.24 853 25.19 10.2 50.4 63 3.6 38.5
03:35 1024 30.24 853 25.19 10.4 50.7 63 3.7 38.6
03:40 1024 30.24 853 25.19 9.9 49.9 66 4 39.2
03:45 1024 30.24 854 25.22 9.5 49.1 66 3.6 38.4
03:50 1024 30.24 854 25.22 9.6 49.3 65 3.4 38.1
03:55 1024 30.24 854 25.22 9.7 49.5 64 3.3 38
04:00 1024 30.24 854 25.22 9.8 49.6 64 3.3 38
04:05 1024 30.24 854 25.22 9.8 49.7 63 3.2 37.8
04:10 1024 30.24 854 25.22 10 49.9 63 3.4 38
04:15 1024 30.24 854 25.22 10.1 50.1 64 3.6 38.6
04:20 1024 30.24 854 25.22 10.5 50.9 61 3.4 38.1
04:25 1024 30.24 854 25.22 10.5 50.9 61 3.4 38.1
04:30 1024 30.24 854 25.22 10.1 50.2 64 3.6 38.5
04:35 1024 30.24 854 25.22 10 50 64 3.5 38.3
04:40 1024 30.24 854 25.22 10 50 64 3.5 38.4
04:45 1024 30.24 854 25.22 9.6 49.3 65 3.5 38.3
04:50 1024 30.24 854 25.22 9.6 49.2 65 3.4 38
04:55 1024 30.24 854 25.22 9.6 49.2 67 3.7 38.6
05:00 1024 30.24 854 25.22 9.9 49.7 65 3.6 38.4
05:05 1024 30.24 854 25.22 9.7 49.4 65 3.5 38.3
05:10 1025 30.27 854 25.22 9.9 49.8 64 3.4 38.1
05:15 1024 30.24 854 25.22 9.7 49.5 62 2.9 37.2
05:20 1024 30.24 854 25.22 10.1 50.2 63 3.3 38
05:25 1025 30.27 854 25.22 10.5 50.9 60 3.1 37.6
05:30 1024 30.24 854 25.22 10.4 50.7 63 3.7 38.6
05:35 1024 30.24 854 25.22 10.2 50.4 64 3.7 38.6
05:40 1024 30.24 854 25.22 10.1 50.2 65 3.8 38.8
05:45 1024 30.24 854 25.22 9.6 49.3 64 3.3 37.9
05:50 1024 30.24 854 25.22 9.7 49.4 64 3.3 37.9
05:55 1024 30.24 854 25.22 10.2 50.4 61 3.1 37.5
06:00 1024 30.24 854 25.22 10.4 50.7 63 3.6 38.5
06:05 1024 30.24 854 25.22 9.8 49.6 65 3.6 38.5
06:10 1024 30.24 854 25.22 9.5 49 67 3.7 38.7
06:15 1024 30.24 854 25.22 9.6 49.2 68 3.9 39.1
06:20 1024 30.24 854 25.22 9.5 49 67 3.8 38.8
06:25 1024 30.24 854 25.22 9.6 49.3 67 3.9 39.1
06:30 1024 30.24 854 25.22 9.7 49.4 66 3.7 38.6
06:35 1025 30.27 854 25.22 9.4 48.9 68 3.8 38.8
06:40 1025 30.27 854 25.22 9.1 48.3 69 3.7 38.6
06:45 1025 30.27 854 25.22 9.2 48.6 68 3.6 38.4
06:50 1025 30.27 854 25.22 9.3 48.8 68 3.7 38.7
06:55 1025 30.27 854 25.22 9.4 48.9 67 3.6 38.5
07:00 1025 30.27 854 25.22 9.3 48.7 67 3.5 38.4
07:05 1025 30.27 854 25.22 9.2 48.5 67 3.3 38
07:10 1025 30.27 854 25.22 9.4 49 65 3.3 38
07:15 1025 30.27 854 25.22 9.9 49.8 63 3.2 37.8
07:20 1025 30.27 854 25.22 10.2 50.4 62 3.3 37.9
07:25 1025 30.27 854 25.22 10.7 51.2 60 3.3 37.9
07:30 1025 30.27 854 25.22 11.2 52.1 59 3.6 38.4
07:35 1025 30.27 854 25.22 11.6 52.9 60 4.1 39.4
07:40 1025 30.27 854 25.22 12 53.6 59 4.2 39.6
07:45 1025 30.27 854 25.22 12 53.5 60 4.5 40
07:50 1025 30.27 854 25.22 12.4 54.3 58 4.5 40
07:55 1025 30.27 854 25.22 13.2 55.7 54 4.2 39.6
08:00 1025 30.27 854 25.22 13.8 56.9 53 4.5 40
08:05 1025 30.27 854 25.22 14.2 57.6 52 4.5 40.1
08:10 1025 30.27 854 25.22 14.7 58.4 51 4.7 40.5
08:15 1025 30.27 854 25.22 15.3 59.5 49 4.7 40.4
08:20 1025 30.27 854 25.22 15.3 59.5 50 4.9 40.8
08:25 1025 30.27 854 25.22 14.9 58.8 53 5.5 41.8
08:30 1025 30.27 854 25.22 14.9 58.9 52 5.2 41.3
08:35 1025 30.27 854 25.22 14.8 58.7 50 4.6 40.4
08:40 1025 30.27 854 25.22 14.7 58.5 51 4.9 40.8
08:45 1025 30.27 854 25.22 15.2 59.3 51 5.1 41.2
08:50 1025 30.27 854 25.22 15.6 60 48 4.7 40.5
08:55 1025 30.27 854 25.22 16.1 61 47 5 41
09:00 1025 30.27 854 25.22 16.2 61.1 47 5.1 41.1
09:05 1025 30.27 854 25.22 16.5 61.6 46 5 41.1
09:10 1025 30.27 854 25.22 16.7 62 45 4.9 40.9
09:15 1025 30.27 854 25.22 17.1 62.7 45 5.2 41.3
09:20 1025 30.27 854 25.22 17.1 62.8 45 5.3 41.5
09:25 1025 30.27 854 25.22 17 62.7 46 5.6 42.1
09:30 1025 30.27 854 25.22 16.1 61 48 5.3 41.6
09:35 1025 30.27 854 25.22 16.5 61.6 46 4.9 40.8
09:40 1025 30.27 854 25.22 16.6 61.9 45 4.7 40.4
09:45 1025 30.27 854 25.22 17.1 62.8 44 4.8 40.6
09:50 1025 30.27 854 25.22 17.8 64.1 44 5.5 41.9
09:55 1025 30.27 854 25.22 17.7 63.8 44 5.3 41.5
10:00 1025 30.27 854 25.22 17.1 62.8 46 5.4 41.7
10:05 1025 30.27 854 25.22 17.3 63.1 45 5.4 41.7
10:10 1025 30.27 854 25.22 17.6 63.6 46 5.9 42.7
10:15 1025 30.27 854 25.22 17.2 63 45 5.4 41.7
10:20 1025 30.27 854 25.22 17 62.6 48 6 42.8
10:25 1025 30.27 854 25.22 17.5 63.4 45 5.6 42.1
10:30 1025 30.27 854 25.22 18 64.4 44 5.8 42.5
10:35 1025 30.27 854 25.22 17.4 63.4 46 5.7 42.3
10:40 1025 30.27 854 25.22 18.4 65.1 43 5.8 42.5
10:45 1025 30.27 854 25.22 18.9 66 42 5.8 42.5
10:50 1025 30.27 854 25.22 19.1 66.3 41 5.7 42.3
10:55 1025 30.27 854 25.22 18.5 65.4 43 5.8 42.4
11:00 1025 30.27 854 25.22 18.4 65 42 5.5 41.9
11:05 1025 30.27 854 25.22 18.7 65.7 41 5.5 41.9
11:10 1025 30.27 854 25.22 19.1 66.5 39 4.9 40.8
11:15 1025 30.27 854 25.22 19.4 66.9 39 5.4 41.7
11:20 1025 30.27 854 25.22 19.7 67.4 38 5.3 41.5
11:25 1025 30.27 854 25.22 19.9 67.7 38 5.4 41.7
11:30 1025 30.27 854 25.22 20 67.9 36 4.5 40.2
11:35 1025 30.27 854 25.22 20.4 68.7 38 5.7 42.3
11:40 1025 30.27 854 25.22 20.1 68.1 39 5.9 42.6
11:45 1025 30.27 854 25.22 20.3 68.5 37 5.2 41.4
11:50 1025 30.27 854 25.22 19.8 67.6 38 5.1 41.1
11:55 1025 30.27 854 25.22 20.3 68.5 35 4.6 40.3
12:00 1025 30.27 854 25.22 20.8 69.4 33 4.2 39.5
12:05 1025 30.27 854 25.22 21.1 70.1 35 5.3 41.5
12:10 1025 30.27 854 25.22 20.2 68.3 39 5.9 42.7
12:15 1025 30.27 854 25.22 20.2 68.4 35 4.5 40
12:20 1025 30.27 854 25.22 21.3 70.3 32 4.2 39.5
12:25 1025 30.27 854 25.22 21.7 71.1 31 3.8 38.9
12:30 1025 30.27 854 25.22 22 71.6 31 4.1 39.4
12:35 1025 30.27 854 25.22 22.1 71.7 29 3.4 38.1
12:40 1024 30.24 854 25.22 22.3 72.1 29 3.5 38.4
12:45 1024 30.24 854 25.22 22.4 72.2 30 4.1 39.4
12:50 1024 30.24 853 25.19 21.8 71.3 32 4.8 40.6
12:55 1024 30.24 853 25.19 21.1 70 30 2.9 37.2
13:00 1024 30.24 853 25.19 21.7 71.1 33 4.8 40.6
13:05 1024 30.24 853 25.19 21.9 71.5 30 4 39.1
13:10 1024 30.24 853 25.19 22.3 72.2 30 4.2 39.6
13:15 1024 30.24 853 25.19 22.6 72.6 31 4.8 40.6
13:20 1024 30.24 853 25.19 22.6 72.8 30 4.3 39.7
13:25 1024 30.24 853 25.19 23.5 74.2 28 4.2 39.6
13:30 1024 30.24 853 25.19 23.3 74 29 4.4 39.9
13:35 1024 30.24 853 25.19 23.6 74.4 30 5.3 41.5
13:40 1024 30.24 853 25.19 23.5 74.2 30 5.2 41.3
13:45 1024 30.24 853 25.19 23.6 74.5 30 5.1 41.3
13:50 1024 30.24 853 25.19 23 73.3 31 5.1 41.2
13:55 1024 30.24 853 25.19 23.3 73.9 30 4.9 40.8
14:00 1024 30.24 853 25.19 23.6 74.6 30 5.1 41.2
14:05 1024 30.24 853 25.19 23.8 74.8 29 4.8 40.6
14:10 1024 30.24 853 25.19 23.7 74.7 30 5.6 42
14:15 1024 30.24 853 25.19 23.7 74.6 29 4.6 40.3
14:20 1024 30.24 853 25.19 23.8 74.8 29 4.8 40.7
14:25 1024 30.24 853 25.19 23.7 74.6 28 4.3 39.7
14:30 1023 30.21 853 25.19 23.1 73.6 30 4.6 40.4
14:35 1023 30.21 853 25.19 23.7 74.7 28 4.2 39.5
14:40 1023 30.21 853 25.19 24.6 76.2 27 4.7 40.5
14:45 1023 30.21 853 25.19 24.5 76.1 29 5.7 42.2
14:50 1023 30.21 853 25.19 24.6 76.2 29 5.6 42.1
14:55 1023 30.21 852 25.16 24.4 75.8 29 5.3 41.5
15:00 1023 30.21 853 25.19 23.8 74.9 30 5.3 41.5
15:05 1023 30.21 852 25.16 23.6 74.5 29 5 41
15:10 1023 30.21 852 25.16 24.1 75.3 28 4.6 40.3
15:15 1023 30.21 852 25.16 24.2 75.5 29 5.2 41.4
15:20 1023 30.21 852 25.16 24.6 76.2 28 5.1 41.2
15:25 1023 30.21 852 25.16 24.7 76.4 29 5.8 42.5
15:30 1023 30.21 852 25.16 24.6 76.3 29 5.7 42.2
15:35 1023 30.21 852 25.16 24.8 76.6 28 5.5 41.8
15:40 1023 30.21 852 25.16 23.9 75 31 5.8 42.4
15:45 1023 30.21 852 25.16 23.6 74.5 30 5.2 41.4
15:50 1023 30.21 852 25.16 23.3 74 31 5.4 41.7
15:55 1023 30.21 852 25.16 23.4 74 29 4.7 40.5
16:00 1023 30.21 852 25.16 24.4 75.8 28 4.7 40.4
16:05 1023 30.21 852 25.16 23.3 74 30 5.2 41.4
16:10 1023 30.21 852 25.16 23.3 74 31 5.4 41.7
16:15 1023 30.21 852 25.16 23.7 74.7 29 5 41
16:20 1023 30.21 852 25.16 23.8 74.8 30 5.2 41.4
16:25 1023 30.21 852 25.16 24.3 75.8 28 5.1 41.2
16:30 1023 30.21 852 25.16 24.8 76.7 27 4.8 40.6
16:35 1023 30.21 852 25.16 24.9 76.9 27 4.7 40.4
16:40 1023 30.21 852 25.16 25.4 77.7 26 4.9 40.7
16:45 1023 30.21 852 25.16 25.7 78.3 25 4.6 40.2
16:50 1023 30.21 852 25.16 25.4 77.8 24 3.7 38.7
16:55 1023 30.21 852 25.16 25.7 78.3 26 4.8 40.6
17:00 1023 30.21 852 25.16 25.3 77.5 26 4.8 40.7
17:05 1023 30.21 852 25.16 25.3 77.6 26 4.4 40
17:10 1023 30.21 852 25.16 25.3 77.6 26 4.5 40.1
17:15 1023 30.21 852 25.16 25.3 77.6 25 4 39.2
17:20 1023 30.21 852 25.16 24.6 76.2 27 4.4 39.9
17:25 1023 30.21 852 25.16 24.2 75.5 27 4.1 39.4
17:30 1023 30.21 852 25.16 23.7 74.7 27 3.8 38.9
17:35 1023 30.21 852 25.16 23.9 75 27 3.8 38.9
17:40 1023 30.21 852 25.16 24.1 75.4 27 4.1 39.3
17:45 1023 30.21 852 25.16 24.1 75.3 27 4.1 39.4
17:50 1023 30.21 852 25.16 24.1 75.3 26 3.7 38.7
17:55 1023 30.21 852 25.16 24.2 75.6 27 4.2 39.5
18:00 1023 30.21 852 25.16 24.5 76.2 26 3.9 38.9
18:05 1023 30.21 852 25.16 25 77 25 3.8 38.8
18:10 1022 30.18 852 25.16 24.5 76.1 26 3.8 38.8
18:15 1022 30.18 852 25.16 24.7 76.5 25 3.4 38.1
18:20 1022 30.18 852 25.16 25.2 77.4 24 3.8 38.8
18:25 1022 30.18 852 25.16 25.4 77.8 24 3.8 38.8
18:30 1022 30.18 852 25.16 25.3 77.5 24 3.6 38.5
18:35 1022 30.18 852 25.16 24.5 76.1 25 3.6 38.5
18:40 1022 30.18 851 25.13 24.6 76.2 25 3.3 38
18:45 1022 30.18 851 25.13 24 75.3 26 3.6 38.5
18:50 1022 30.18 851 25.13 23.9 75.1 25 2.9 37.3
18:55 1022 30.18 851 25.13 23.6 74.4 26 3.3 38
19:00 1022 30.18 851 25.13 23.8 74.8 25 2.8 37.1
19:05 1022 30.18 851 25.13 23.8 74.8 24 2.5 36.4
19:10 1022 30.18 851 25.13 23.8 74.8 25 2.7 36.8
19:15 1022 30.18 851 25.13 24 75.1 25 2.7 36.9
19:20 1022 30.18 851 25.13 23.9 75.1 23 2.1 35.7
19:25 1022 30.18 851 25.13 23.5 74.4 24 2 35.6
19:30 1022 30.18 851 25.13 23.6 74.5 23 1.6 34.9
19:35 1022 30.18 851 25.13 23.5 74.3 24 2 35.6
19:40 1022 30.18 851 25.13 23.5 74.2 24 2.2 36
19:45 1022 30.18 851 25.13 23.3 74 24 1.7 35.1
19:50 1022 30.18 851 25.13 23.3 74 24 1.7 35
19:55 1022 30.18 851 25.13 23.3 73.9 24 1.7 35.1
20:00 1022 30.18 851 25.13 23.2 73.8 24 1.8 35.3
20:05 1022 30.18 851 25.13 23.1 73.7 25 2 35.7
20:10 1022 30.18 851 25.13 23.2 73.8 25 2.4 36.3
20:15 1022 30.18 851 25.13 23.3 73.9 30 4.7 40.5
20:20 1022 30.18 851 25.13 23.2 73.7 28 3.7 38.6
20:25 1022 30.18 852 25.16 22.9 73.3 29 4.4 39.8
20:30 1022 30.18 852 25.16 22.8 73 31 5.1 41.2
20:35 1022 30.18 852 25.16 22.5 72.5 38 7.7 45.8
20:40 1022 30.18 852 25.16 22.1 71.7 39 7.5 45.5
20:45 1022 30.18 852 25.16 21.9 71.5 41 8.3 47
20:50 1022 30.18 852 25.16 21.5 70.7 44 9.1 48.3
20:55 1022 30.18 852 25.16 21.1 69.9 45 8.7 47.7
21:00 1022 30.18 852 25.16 21 69.7 43 8.2 46.8
21:05 1023 30.21 852 25.16 20.7 69.3 48 9.6 49.3
21:10 1023 30.21 852 25.16 20.6 69 45 8.5 47.3
21:15 1023 30.21 852 25.16 20.4 68.7 45 8.3 47
21:20 1023 30.21 852 25.16 20.1 68.2 51 9.8 49.6
21:25 1023 30.21 852 25.16 19.9 67.8 46 8 46.4
21:30 1023 30.21 852 25.16 19.5 67.1 48 8.3 47
21:35 1023 30.21 852 25.16 19.1 66.4 52 9.3 48.7
21:40 1023 30.21 852 25.16 19 66.2 50 8.4 47.1
21:45 1023 30.21 852 25.16 18.7 65.7 51 8.6 47.4
21:50 1023 30.21 852 25.16 18.6 65.5 54 9.1 48.4
21:55 1023 30.21 852 25.16 18.4 65 53 8.7 47.6
22:00 1023 30.21 852 25.16 18.1 64.6 54 8.7 47.7
22:05 1023 30.21 852 25.16 18 64.4 50 7.4 45.4
22:10 1023 30.21 852 25.16 18.4 65.1 48 7.3 45.1
22:15 1023 30.21 853 25.19 18.4 65.1 50 7.9 46.3
22:20 1023 30.21 853 25.19 18.3 65 51 8.1 46.6
22:25 1023 30.21 853 25.19 17.8 64.1 53 8.2 46.7
22:30 1024 30.24 853 25.19 17.5 63.5 57 9 48.2
22:35 1024 30.24 853 25.19 17.3 63.2 55 8.3 46.9
22:40 1024 30.24 853 25.19 16.9 62.5 57 8.4 47.2
22:45 1024 30.24 853 25.19 17 62.5 59 9.1 48.4
22:50 1024 30.24 853 25.19 17.1 62.7 56 8.2 46.8
22:55 1024 30.24 853 25.19 16.9 62.5 53 7.5 45.5
23:00 1024 30.24 853 25.19 17.3 63.1 55 8.2 46.8
23:05 1024 30.24 853 25.19 17.2 63 53 7.6 45.7
23:10 1024 30.24 853 25.19 16.8 62.2 55 7.9 46.1
23:15 1024 30.24 853 25.19 16.5 61.7 58 8.2 46.8
23:20 1024 30.24 853 25.19 16.5 61.6 56 7.7 45.8
23:25 1024 30.24 853 25.19 16.8 62.2 54 7.4 45.3
23:30 1024 30.24 853 25.19 16.9 62.3 55 7.8 46.1
23:35 1024 30.24 853 25.19 16.6 61.9 55 7.6 45.8
23:40 1024 30.24 853 25.19 16.4 61.5 57 8.1 46.5
23:45 1024 30.24 853 25.19 15.7 60.3 59 7.7 45.9
23:50 1024 30.24 853 25.19 15.8 60.5 62 8.6 47.5
23:55 1024 30.24 853 25.19 15.8 60.5 58 7.7 45.9
24:00 1024 30.24 853 25.19 15.4 59.8 60 7.8 46.1